createdAt,value
2022-11-10T00:01:09.926Z,2.33
2022-11-10T00:03:38.245Z,2.80
2022-11-10T00:06:06.797Z,2.53
2022-11-10T00:08:33.621Z,1.92
2022-11-10T00:11:06.505Z,2.30
2022-11-10T00:13:35.275Z,2.28
2022-11-10T00:16:22.679Z,2.55
2022-11-10T00:18:49.103Z,2.03
2022-11-10T00:21:16.779Z,2.10
2022-11-10T00:23:43.236Z,2.78
2022-11-10T00:26:18.095Z,2.30
2022-11-10T00:28:45.337Z,2.47
2022-11-10T00:31:12.602Z,1.80
2022-11-10T00:33:41.115Z,2.80
2022-11-10T00:36:07.761Z,2.70
2022-11-10T00:38:34.203Z,2.40
2022-11-10T00:41:01.099Z,2.50
2022-11-10T00:43:29.326Z,2.38
2022-11-10T00:45:56.308Z,2.83
2022-11-10T00:48:23.042Z,2.53
2022-11-10T00:50:49.438Z,2.70
2022-11-10T00:53:15.877Z,2.65
2022-11-10T00:55:42.360Z,2.42
2022-11-10T00:58:09.133Z,2.38
2022-11-10T01:00:35.669Z,2.30
2022-11-10T01:03:02.533Z,2.40
2022-11-10T01:05:30.126Z,2.65
2022-11-10T01:07:59.440Z,2.47
2022-11-10T01:10:26.914Z,2.40
2022-11-10T01:12:53.444Z,2.35
2022-11-10T01:15:24.524Z,2.28
2022-11-10T01:17:55.578Z,2.20
2022-11-10T01:20:22.786Z,2.50
2022-11-10T01:22:49.105Z,3.00
2022-11-10T01:25:15.672Z,2.30
2022-11-10T01:27:42.035Z,2.38
2022-11-10T01:30:08.827Z,2.25
2022-11-10T01:32:35.203Z,2.38
2022-11-10T01:35:01.578Z,2.95
2022-11-10T01:37:27.931Z,2.65
2022-11-10T01:39:54.528Z,2.42
2022-11-10T01:42:26.017Z,2.30
2022-11-10T01:45:23.310Z,3.00
2022-11-10T01:47:52.425Z,2.55
2022-11-10T01:50:20.328Z,2.13
2022-11-10T01:52:50.717Z,2.58
2022-11-10T01:55:17.798Z,2.60
2022-11-10T01:57:45.297Z,3.20
2022-11-10T02:00:12.125Z,2.40
2022-11-10T02:05:13.980Z,2.63
2022-11-10T02:07:40.952Z,2.00
2022-11-10T02:10:15.858Z,2.33
2022-11-10T02:12:43.767Z,2.60
2022-11-10T02:15:12.993Z,2.38
2022-11-10T02:17:40.202Z,2.55
2022-11-10T02:20:10.264Z,2.65
2022-11-10T02:22:37.415Z,2.55
2022-11-10T02:25:05.137Z,2.42
2022-11-10T02:27:32.013Z,2.35
2022-11-10T02:30:01.611Z,2.70
2022-11-10T02:32:28.637Z,3.00
2022-11-10T02:34:55.013Z,2.83
2022-11-10T02:37:21.419Z,2.67
2022-11-10T02:39:47.783Z,3.00
2022-11-10T02:42:14.118Z,2.55
2022-11-10T02:44:41.370Z,2.70
2022-11-10T02:47:08.156Z,3.22
2022-11-10T02:49:34.525Z,2.50
2022-11-10T02:52:00.868Z,2.22
2022-11-10T02:54:27.422Z,3.00
2022-11-10T02:56:53.741Z,3.15
2022-11-10T02:59:20.049Z,2.67
2022-11-10T03:01:46.532Z,2.80
2022-11-10T03:04:13.025Z,2.80
2022-11-10T03:06:39.410Z,2.67
2022-11-10T03:09:05.875Z,3.00
2022-11-10T03:11:32.640Z,2.95
2022-11-10T03:14:02.067Z,3.30
2022-11-10T03:16:29.507Z,2.92
2022-11-10T03:18:55.839Z,3.50
2022-11-10T03:21:22.165Z,3.15
2022-11-10T03:23:48.502Z,2.80
2022-11-10T03:26:14.945Z,3.28
2022-11-10T03:28:41.308Z,3.40
2022-11-10T03:31:07.662Z,3.08
2022-11-10T03:33:33.985Z,3.03
2022-11-10T03:36:00.331Z,3.45
2022-11-10T03:38:26.683Z,2.78
2022-11-10T03:46:05.806Z,2.80
2022-11-10T03:48:32.241Z,3.40
2022-11-10T03:50:58.574Z,3.15
2022-11-10T03:53:25.129Z,2.88
2022-11-10T03:55:51.611Z,2.70
2022-11-10T03:58:17.964Z,3.47
2022-11-10T04:00:44.281Z,3.25
2022-11-10T04:03:10.678Z,3.20
2022-11-10T04:05:55.985Z,2.90
2022-11-10T04:08:40.744Z,3.45
2022-11-10T04:11:07.160Z,3.47
2022-11-10T04:13:52.199Z,3.13
2022-11-10T04:16:18.613Z,3.08
2022-11-10T04:18:44.974Z,3.10
2022-11-10T04:21:12.152Z,3.30
2022-11-10T04:23:38.535Z,3.30
2022-11-10T04:26:26.287Z,4.00
2022-11-10T04:28:57.964Z,3.97
2022-11-10T04:31:26.342Z,3.45
2022-11-10T04:33:54.249Z,3.22
2022-11-10T04:36:23.621Z,3.58
2022-11-10T04:38:50.233Z,3.67
2022-11-10T04:41:16.905Z,3.70
2022-11-10T04:43:43.402Z,3.83
2022-11-10T04:46:26.758Z,3.63
2022-11-10T04:48:54.406Z,3.50
2022-11-10T04:51:24.445Z,3.47
2022-11-10T04:53:50.932Z,3.38
2022-11-10T04:56:19.324Z,3.00
2022-11-10T04:58:46.538Z,3.60
2022-11-10T05:01:15.265Z,3.47
2022-11-10T05:03:42.619Z,3.28
2022-11-10T05:06:09.940Z,2.83
2022-11-10T05:08:37.761Z,3.00
2022-11-10T05:11:04.590Z,3.47
2022-11-10T05:13:31.110Z,3.78
2022-11-10T05:15:57.679Z,2.78
2022-11-10T05:18:24.617Z,3.35
2022-11-10T05:20:53.350Z,3.03
2022-11-10T05:23:38.685Z,4.05
2022-11-10T05:26:07.703Z,4.05
2022-11-10T05:28:34.348Z,3.60
2022-11-10T05:31:00.772Z,4.10
2022-11-10T05:33:27.162Z,3.55
2022-11-10T05:35:53.508Z,3.67
2022-11-10T05:38:19.873Z,3.85
2022-11-10T05:40:46.344Z,3.88
2022-11-10T05:43:12.724Z,4.07
2022-11-10T05:45:39.051Z,3.85
2022-11-10T05:48:05.606Z,4.57
2022-11-10T05:50:31.947Z,4.03
2022-11-10T05:52:58.341Z,3.65
2022-11-10T05:55:27.737Z,4.25
2022-11-10T05:57:55.934Z,4.05
2022-11-10T06:00:27.742Z,4.07
2022-11-10T06:03:21.134Z,3.92
2022-11-10T06:05:48.144Z,4.18
2022-11-10T06:08:14.898Z,4.22
2022-11-10T06:10:41.493Z,3.65
2022-11-10T06:13:07.855Z,4.38
2022-11-10T06:15:34.388Z,4.15
2022-11-10T06:18:00.906Z,4.25
2022-11-10T06:20:27.687Z,3.97
2022-11-10T06:23:02.644Z,3.40
2022-11-10T06:25:30.644Z,3.67
2022-11-10T06:27:57.335Z,3.00
2022-11-10T06:30:24.326Z,3.83
2022-11-10T06:32:50.696Z,3.45
2022-11-10T06:35:17.387Z,3.47
2022-11-10T06:37:43.794Z,3.05
2022-11-10T06:40:12.706Z,3.53
2022-11-10T06:42:39.325Z,2.90
2022-11-10T06:45:06.325Z,3.03
2022-11-10T06:47:32.686Z,3.15
2022-11-10T06:49:59.278Z,3.25
2022-11-10T06:52:25.613Z,2.88
2022-11-10T06:54:52.024Z,2.80
2022-11-10T06:57:18.503Z,3.33
2022-11-10T06:59:44.835Z,3.58
2022-11-10T07:02:14.749Z,3.17
2022-11-10T07:04:42.595Z,3.40
2022-11-10T07:07:09.668Z,3.10
2022-11-10T07:09:36.084Z,3.60
2022-11-10T07:12:02.418Z,3.45
2022-11-10T07:14:28.768Z,3.53
2022-11-10T07:16:55.106Z,3.70
2022-11-10T07:19:21.434Z,3.40
2022-11-10T07:21:47.834Z,3.55
2022-11-10T07:24:14.161Z,4.30
2022-11-10T07:26:40.481Z,4.47
2022-11-10T07:29:06.809Z,4.03
2022-11-10T07:31:33.160Z,4.00
2022-11-10T07:33:59.501Z,3.85
2022-11-10T07:36:28.833Z,4.20
2022-11-10T07:38:55.651Z,4.35
2022-11-10T07:41:22.097Z,4.68
2022-11-10T07:43:48.420Z,4.65
2022-11-10T07:46:14.814Z,3.90
2022-11-10T07:48:41.147Z,4.53
2022-11-10T07:51:07.498Z,4.90
2022-11-10T07:53:34.286Z,5.18
2022-11-10T07:56:00.658Z,5.10
2022-11-10T07:58:34.101Z,4.45
2022-11-10T08:01:00.436Z,4.22
2022-11-10T08:03:26.823Z,4.35
2022-11-10T08:05:53.213Z,4.22
2022-11-10T08:08:19.532Z,4.18
2022-11-10T08:10:45.870Z,4.47
2022-11-10T08:13:13.969Z,3.92
2022-11-10T08:15:41.101Z,3.92
2022-11-10T08:18:19.934Z,4.47
2022-11-10T08:20:46.546Z,4.15
2022-11-10T08:23:13.069Z,4.40
2022-11-10T08:25:39.652Z,4.13
2022-11-10T08:28:09.331Z,4.00
2022-11-10T08:30:37.381Z,3.80
2022-11-10T08:33:05.647Z,3.97
2022-11-10T08:35:47.780Z,3.80
2022-11-10T08:38:19.877Z,4.07
2022-11-10T08:40:46.798Z,3.67
2022-11-10T08:43:15.052Z,4.22
2022-11-10T08:45:43.166Z,4.00
2022-11-10T08:48:17.564Z,3.63
2022-11-10T08:50:44.390Z,3.95
2022-11-10T08:53:13.195Z,3.47
2022-11-10T08:55:40.736Z,3.47
2022-11-10T08:58:08.623Z,3.60
2022-11-10T09:00:35.197Z,3.92
2022-11-10T09:03:07.928Z,3.88
2022-11-10T09:05:35.927Z,3.95
2022-11-10T09:08:03.893Z,3.40
2022-11-10T09:10:31.183Z,3.83
2022-11-10T09:13:01.876Z,3.50
2022-11-10T09:15:29.419Z,3.22
2022-11-10T09:18:00.280Z,3.58
2022-11-10T09:20:28.399Z,4.18
2022-11-10T09:22:55.313Z,4.05
2022-11-10T09:25:22.741Z,3.95
2022-11-10T09:27:49.110Z,3.55
2022-11-10T09:30:17.844Z,4.18
2022-11-10T09:32:46.519Z,3.75
2022-11-10T09:35:13.530Z,3.88
2022-11-10T09:37:40.383Z,3.85
2022-11-10T09:40:12.890Z,4.25
2022-11-10T09:42:41.313Z,4.22
2022-11-10T09:45:21.781Z,4.18
2022-11-10T09:47:59.778Z,3.83
2022-11-10T09:50:41.219Z,3.95
2022-11-10T09:53:17.764Z,3.55
2022-11-10T09:55:48.616Z,3.58
2022-11-10T09:58:15.744Z,4.00
2022-11-10T10:01:07.152Z,4.10
2022-11-10T10:03:35.989Z,3.83
2022-11-10T10:06:11.557Z,3.55
2022-11-10T10:09:11.799Z,3.38
2022-11-10T10:11:50.220Z,2.97
2022-11-10T10:14:25.819Z,3.13
2022-11-10T10:17:08.493Z,4.10
2022-11-10T10:19:48.268Z,3.60
2022-11-10T10:22:42.418Z,3.53
2022-11-10T10:25:20.998Z,3.10
2022-11-10T10:27:52.875Z,3.35
2022-11-10T10:30:20.690Z,3.75
2022-11-10T10:32:47.281Z,3.50
2022-11-10T10:35:17.886Z,3.65
2022-11-10T10:37:49.530Z,2.92
2022-11-10T10:40:22.259Z,3.63
2022-11-10T10:42:48.690Z,3.55
2022-11-10T10:45:24.226Z,3.22
2022-11-10T10:47:53.493Z,3.97
2022-11-10T10:50:33.474Z,2.85
2022-11-10T10:53:07.357Z,3.20
2022-11-10T10:55:35.975Z,3.20
2022-11-10T10:58:18.800Z,3.33
2022-11-10T11:00:47.413Z,3.58
2022-11-10T11:03:25.318Z,3.30
2022-11-10T11:06:17.439Z,3.60
2022-11-10T11:09:15.088Z,2.88
2022-11-10T11:11:45.365Z,3.00
2022-11-10T11:14:13.129Z,3.10
2022-11-10T11:16:51.296Z,3.25
2022-11-10T11:19:19.702Z,3.40
2022-11-10T11:22:25.020Z,3.35
2022-11-10T11:25:20.943Z,3.03
2022-11-10T11:27:54.555Z,2.95
2022-11-10T11:30:25.191Z,3.25
2022-11-10T11:33:18.913Z,2.90
2022-11-10T11:36:15.919Z,3.28
2022-11-10T11:39:09.654Z,3.03
2022-11-10T11:41:46.263Z,3.00
2022-11-10T11:44:20.929Z,3.90
2022-11-10T11:47:08.721Z,3.13
2022-11-10T11:50:12.504Z,2.72
2022-11-10T11:53:11.818Z,3.35
2022-11-10T11:55:59.253Z,3.45
2022-11-10T11:58:37.277Z,3.13
2022-11-10T12:01:03.602Z,2.88
2022-11-10T12:03:42.654Z,3.05
2022-11-10T12:06:34.440Z,2.92
2022-11-10T12:09:09.340Z,2.53
2022-11-10T12:12:15.123Z,2.85
2022-11-10T12:14:56.887Z,2.65
2022-11-10T12:18:03.805Z,2.72
2022-11-10T12:20:33.034Z,2.80
2022-11-10T12:23:22.654Z,2.83
2022-11-10T12:25:58.862Z,3.22
2022-11-10T12:28:31.370Z,2.72
2022-11-10T12:31:02.511Z,3.35
2022-11-10T12:33:37.723Z,2.95
2022-11-10T12:36:11.524Z,2.88
2022-11-10T12:39:16.348Z,2.80
2022-11-10T12:41:48.650Z,2.60
2022-11-10T12:45:04.030Z,3.03
2022-11-10T12:47:39.112Z,3.00
2022-11-10T12:50:32.248Z,2.50
2022-11-10T12:53:13.670Z,2.70
2022-11-10T12:55:46.080Z,3.00
2022-11-10T12:58:14.390Z,2.10
2022-11-10T13:00:45.912Z,2.05
2022-11-10T13:03:26.741Z,2.25
2022-11-10T13:06:00.797Z,2.33
2022-11-10T13:08:42.176Z,2.17
2022-11-10T13:11:11.631Z,2.67
2022-11-10T13:13:46.435Z,2.60
2022-11-10T13:16:34.553Z,2.60
2022-11-10T13:19:01.059Z,2.70
2022-11-10T13:21:50.519Z,2.35
2022-11-10T13:24:23.455Z,2.17
2022-11-10T13:26:58.775Z,2.28
2022-11-10T13:29:32.135Z,2.05
2022-11-10T13:32:19.980Z,2.45
2022-11-10T13:34:46.388Z,2.10
2022-11-10T13:37:34.558Z,2.40
2022-11-10T13:40:19.706Z,2.63
2022-11-10T13:42:58.370Z,2.38
2022-11-10T13:45:39.911Z,2.42
2022-11-10T13:48:12.325Z,2.08
2022-11-10T13:50:51.945Z,2.20
2022-11-10T13:53:44.705Z,1.95
2022-11-10T13:56:42.866Z,2.28
2022-11-10T13:59:25.046Z,2.28
2022-11-10T14:01:51.438Z,1.45
2022-11-10T14:04:53.010Z,2.00
2022-11-10T14:07:20.998Z,1.90
2022-11-10T14:09:52.117Z,2.17
2022-11-10T14:12:30.747Z,1.75
2022-11-10T14:15:05.067Z,1.90
2022-11-10T14:17:42.008Z,1.90
2022-11-10T14:20:55.969Z,1.65
2022-11-10T14:23:31.315Z,1.85
2022-11-10T14:26:00.958Z,1.80
2022-11-10T14:28:28.819Z,1.70
2022-11-10T14:30:55.909Z,1.70
2022-11-10T14:33:24.834Z,1.85
2022-11-10T14:35:58.557Z,1.88
2022-11-10T14:38:33.798Z,1.50
2022-11-10T14:41:02.522Z,1.83
2022-11-10T14:43:30.375Z,1.83
2022-11-10T14:45:57.658Z,2.20
2022-11-10T14:48:26.596Z,1.70
2022-11-10T14:50:53.543Z,1.80
2022-11-10T14:53:34.361Z,1.83
2022-11-10T14:56:02.919Z,1.90
2022-11-10T14:58:38.844Z,2.10
2022-11-10T15:03:39.331Z,1.70
2022-11-10T15:06:09.279Z,1.60
2022-11-10T15:08:36.565Z,1.95
2022-11-10T15:11:03.048Z,1.75
2022-11-10T15:13:33.190Z,1.70
2022-11-10T15:16:21.451Z,1.73
2022-11-10T15:19:22.101Z,1.55
2022-11-10T15:21:49.209Z,1.65
2022-11-10T15:24:16.312Z,1.58
2022-11-10T15:26:42.794Z,1.90
2022-11-10T15:29:21.421Z,1.73
2022-11-10T15:31:48.416Z,1.80
2022-11-10T15:34:42.516Z,1.80
2022-11-10T15:37:12.869Z,2.20
2022-11-10T15:39:39.305Z,1.55
2022-11-10T15:42:13.948Z,1.63
2022-11-10T15:44:40.280Z,1.67
2022-11-10T15:47:12.210Z,1.80
2022-11-10T15:49:39.843Z,2.08
2022-11-10T15:52:18.924Z,1.73
2022-11-10T15:54:45.949Z,1.38
2022-11-10T15:57:17.199Z,1.95
2022-11-10T15:59:43.828Z,2.15
2022-11-10T16:02:21.989Z,1.55
2022-11-10T16:04:51.668Z,1.45
2022-11-10T16:07:21.218Z,1.73
2022-11-10T16:09:47.607Z,2.25
2022-11-10T16:12:18.221Z,1.42
2022-11-10T16:14:48.488Z,1.90
2022-11-10T16:17:16.653Z,1.88
2022-11-10T16:19:43.280Z,1.75
2022-11-10T16:22:10.959Z,1.60
2022-11-10T16:24:38.357Z,2.55
2022-11-10T16:27:06.573Z,1.90
2022-11-10T16:29:35.860Z,1.58
2022-11-10T16:32:02.374Z,1.73
2022-11-10T16:34:28.974Z,1.90
2022-11-10T16:36:55.629Z,1.80
2022-11-10T16:39:22.146Z,1.65
2022-11-10T16:41:48.463Z,2.00
2022-11-10T16:44:15.562Z,2.10
2022-11-10T16:46:43.597Z,2.15
2022-11-10T16:49:31.528Z,1.67
2022-11-10T16:51:57.889Z,1.95
2022-11-10T16:54:24.217Z,1.88
2022-11-10T16:56:50.564Z,1.80
2022-11-10T16:59:17.053Z,1.95
2022-11-10T17:01:45.719Z,1.92
2022-11-10T17:04:13.430Z,1.88
2022-11-10T17:06:40.292Z,1.92
2022-11-10T17:09:22.077Z,2.65
2022-11-10T17:11:48.502Z,1.90
2022-11-10T17:14:15.068Z,2.00
2022-11-10T17:16:43.990Z,1.63
2022-11-10T17:19:17.549Z,1.80
2022-11-10T17:21:44.904Z,1.80
2022-11-10T17:24:14.089Z,1.92
2022-11-10T17:26:41.449Z,1.60
2022-11-10T17:29:17.183Z,2.35
2022-11-10T17:31:44.779Z,1.77
2022-11-10T17:34:11.170Z,2.15
2022-11-10T17:36:37.626Z,2.03
2022-11-10T17:39:04.269Z,2.08
2022-11-10T17:41:30.884Z,2.08
2022-11-10T17:43:57.208Z,1.75
2022-11-10T17:46:23.648Z,2.20
2022-11-10T17:48:49.990Z,2.50
2022-11-10T17:51:20.854Z,2.38
2022-11-10T17:53:47.328Z,2.47
2022-11-10T17:56:14.767Z,2.22
2022-11-10T17:58:41.111Z,2.20
2022-11-10T18:01:15.691Z,2.50
2022-11-10T18:03:42.092Z,2.55
2022-11-10T18:06:12.195Z,2.28
2022-11-10T18:08:38.599Z,2.17
2022-11-10T18:11:10.358Z,2.30
2022-11-10T18:13:38.126Z,2.00
2022-11-10T18:16:05.275Z,2.28
2022-11-10T18:18:32.019Z,2.15
2022-11-10T18:20:58.337Z,2.50
2022-11-10T18:23:25.056Z,2.53
2022-11-10T18:25:51.726Z,2.35
2022-11-10T18:28:18.041Z,1.95
2022-11-10T18:30:45.016Z,2.42
2022-11-10T18:33:12.705Z,2.05
2022-11-10T18:35:40.075Z,2.13
2022-11-10T18:38:07.534Z,2.78
2022-11-10T18:40:33.905Z,2.28
2022-11-10T18:43:04.617Z,2.25
2022-11-10T18:45:33.717Z,2.00
2022-11-10T18:48:02.493Z,2.22
2022-11-10T18:50:29.122Z,1.85
2022-11-10T18:52:55.498Z,2.30
2022-11-10T18:55:21.814Z,2.13
2022-11-10T18:57:48.992Z,1.85
2022-11-10T19:00:15.805Z,2.10
2022-11-10T19:02:42.815Z,1.83
2022-11-10T19:05:09.301Z,2.00
2022-11-10T19:07:35.622Z,2.15
2022-11-10T19:10:01.952Z,1.75
2022-11-10T19:12:28.361Z,2.15
2022-11-10T19:14:54.704Z,2.20
2022-11-10T19:17:21.058Z,2.03
2022-11-10T19:19:49.861Z,2.28
2022-11-10T19:22:20.067Z,2.00
2022-11-10T19:25:06.218Z,2.20
2022-11-10T19:27:32.933Z,2.67
2022-11-10T19:29:59.310Z,2.35
2022-11-10T19:32:25.632Z,2.40
2022-11-10T19:34:52.082Z,2.20
2022-11-10T19:37:18.413Z,2.10
2022-11-10T19:39:44.734Z,2.60
2022-11-10T19:42:11.259Z,2.05
2022-11-10T19:44:37.651Z,2.20
2022-11-10T19:47:04.072Z,1.90
2022-11-10T19:49:30.455Z,2.55
2022-11-10T19:51:56.820Z,2.05
2022-11-10T19:54:23.164Z,2.70
2022-11-10T19:56:50.137Z,2.15
2022-11-10T19:59:19.268Z,1.98
2022-11-10T20:01:46.104Z,2.05
2022-11-10T20:04:13.806Z,1.85
2022-11-10T20:06:40.229Z,2.28
2022-11-10T20:09:06.595Z,2.33
2022-11-10T20:11:33.003Z,2.63
2022-11-10T20:14:00.555Z,2.20
2022-11-10T20:16:27.044Z,2.30
2022-11-10T20:18:53.537Z,1.90
2022-11-10T20:21:23.402Z,2.60
2022-11-10T20:23:54.900Z,2.35
2022-11-10T20:26:21.777Z,2.22
2022-11-10T20:28:48.194Z,2.58
2022-11-10T20:31:24.512Z,2.63
2022-11-10T20:33:53.343Z,2.63
2022-11-10T20:36:29.006Z,2.53
2022-11-10T20:38:57.397Z,2.50
2022-11-10T20:41:25.979Z,1.92
2022-11-10T20:43:52.438Z,2.70
2022-11-10T20:46:53.025Z,2.47
2022-11-10T20:49:07.109Z,2.53
2022-11-10T20:51:33.437Z,2.10
2022-11-10T20:54:00.849Z,2.42
2022-11-10T20:56:29.974Z,3.00
2022-11-10T20:58:57.425Z,2.33
2022-11-10T21:01:24.152Z,2.13
2022-11-10T21:03:51.168Z,2.50
2022-11-10T21:06:18.056Z,2.40
2022-11-10T21:08:44.396Z,2.50
2022-11-10T21:11:11.110Z,2.13
2022-11-10T21:13:38.853Z,2.60
2022-11-10T21:16:06.730Z,2.70
2022-11-10T21:18:35.651Z,2.78
2022-11-10T21:21:03.118Z,2.70
2022-11-10T21:23:29.469Z,2.53
2022-11-10T21:25:57.682Z,2.60
2022-11-10T21:28:24.294Z,2.40
2022-11-10T21:30:51.347Z,2.47
2022-11-10T21:33:18.250Z,2.53
2022-11-10T21:35:44.965Z,3.10
2022-11-10T21:38:13.107Z,2.55
2022-11-10T21:40:39.603Z,3.00
2022-11-10T21:43:06.252Z,3.42
2022-11-10T21:45:32.625Z,3.03
2022-11-10T21:48:02.974Z,2.92
2022-11-10T21:50:29.529Z,3.28
2022-11-10T21:52:56.004Z,3.58
2022-11-10T21:55:22.331Z,3.35
2022-11-10T21:57:48.656Z,3.60
2022-11-10T22:00:15.100Z,3.10
2022-11-10T22:02:41.675Z,2.67
2022-11-10T22:05:08.374Z,2.38
2022-11-10T22:07:34.820Z,3.17
2022-11-10T22:10:19.517Z,3.50
2022-11-10T22:13:04.423Z,2.85
2022-11-10T22:15:49.171Z,2.75
2022-11-10T22:18:36.482Z,3.00
2022-11-10T22:21:06.825Z,3.25
2022-11-10T22:23:52.122Z,2.95
2022-11-10T22:26:19.364Z,2.78
2022-11-10T22:28:46.348Z,3.50
2022-11-10T22:31:13.431Z,3.13
2022-11-10T22:33:41.710Z,3.53
2022-11-10T22:36:12.171Z,3.45
2022-11-10T22:38:40.597Z,3.30
2022-11-10T22:41:31.319Z,2.90
2022-11-10T22:44:03.995Z,2.85
2022-11-10T22:46:42.724Z,2.88
2022-11-10T22:49:11.855Z,2.70
2022-11-10T22:51:38.797Z,2.50
2022-11-10T22:54:08.690Z,2.33
2022-11-10T22:56:35.095Z,3.30
2022-11-10T22:59:01.758Z,2.72
2022-11-10T23:01:28.241Z,2.78
2022-11-10T23:03:58.102Z,2.95
2022-11-10T23:06:25.082Z,3.38
2022-11-10T23:08:51.923Z,3.17
2022-11-10T23:11:21.450Z,3.20
2022-11-10T23:13:49.710Z,3.13
2022-11-10T23:16:26.482Z,3.33
2022-11-10T23:18:54.867Z,3.30
2022-11-10T23:21:24.021Z,2.95
2022-11-10T23:23:51.261Z,2.97
2022-11-10T23:26:20.754Z,3.42
2022-11-10T23:28:47.911Z,3.75
2022-11-10T23:31:19.425Z,3.42
2022-11-10T23:33:47.412Z,3.03
2022-11-10T23:36:16.185Z,2.97
2022-11-10T23:38:42.809Z,3.13
2022-11-10T23:41:14.446Z,2.70
2022-11-10T23:43:41.068Z,3.50
2022-11-10T23:46:10.073Z,2.75
2022-11-10T23:48:37.646Z,3.15
2022-11-10T23:51:05.235Z,3.28
2022-11-10T23:53:32.436Z,2.58
2022-11-10T23:56:03.606Z,3.53
2022-11-10T23:58:30.477Z,2.90
